Terminal Aerodrome Forecast
Issued by NWS

Home | Current Version | Previous Version | Text Only | Print | Product List | Glossary On
Versions: 1 2 3 4 5 6 7 8 9 10 11 12
000
FTUS44 KMAF 281100
TAFPEQ
TAF
KPEQ 281135Z 2812/2912 VRB03KT P6SM SKC
      TEMPO 2812/2816 1SM BR OVC010
     FM282000 24011KT P6SM SKC
     FM290000 22005KT P6SM SCT250=

USA.gov is the U.S. government's official web portal to all federal, state and local government web resources and services.